Sivas, Turkey
Current Conditions -  °F | °C
As of 4:50 AM on Monday 22 Dec 2014 (Local Time) from LTAR Reporting Station
Light Snow Light Snow  
Wind Chill: 24°   Ceiling: 10000
Heat Index: 32°   Visibility: 6mi
Dew Point: 27°   Wind: 9mph
Humidity: 80%   Direction: 210°SSW
Pressure: 29.94"   Gusts: NA
Location:  39.75°N, 37.02°E
Report Text: LTAR 220150Z 21008KT 9999 -SN SCT040 BKN100 M00/M03 Q1014
Loading
Personal Weather Stations






























Interactive Weather Map New forecast layout! Learn more

10-Day Weather Forecast

Advertisements
Track Severe Weather on mobile